Terminal Aerodrome Forecast
Issued by NWS

Home | Current Version | Previous Version | Text Only | Print | Product List | Glossary On
Versions: 1 2 3 4 5 6 7 8 9 10 11 12
185
FTUS41 KBTV 282320
TAFMSS
TAF
KMSS 282320Z 2900/2924 VRB03KT P6SM FEW250
     FM291800 23008KT P6SM VCSH SCT070
     FM292200 22008KT P6SM VCSH BKN070=

USA.gov is the U.S. government's official web portal to all federal, state and local government web resources and services.